createdAt,value
2023-02-06T00:01:30.746Z,102742.34
2023-02-06T00:04:34.771Z,102738.75
2023-02-06T00:07:37.405Z,102742.91
2023-02-06T00:10:42.124Z,102738.63
2023-02-06T00:13:46.227Z,102728.81
2023-02-06T00:16:48.919Z,102744.66
2023-02-06T00:19:52.958Z,102744.63
2023-02-06T00:22:55.686Z,102750.09
2023-02-06T00:25:58.306Z,102751.59
2023-02-06T00:29:01.086Z,102752.72
2023-02-06T00:32:04.099Z,102745.56
2023-02-06T00:35:08.375Z,102746.97
2023-02-06T00:38:11.659Z,102743.69
2023-02-06T00:41:14.385Z,102737.22
2023-02-06T00:44:17.098Z,102744.22
2023-02-06T00:47:19.835Z,102747.53
2023-02-06T00:50:23.943Z,102753.44
2023-02-06T00:53:26.808Z,102734.41
2023-02-06T00:56:29.433Z,102756.66
2023-02-06T00:59:32.097Z,102761.19
2023-02-06T01:02:34.960Z,102759.31
2023-02-06T01:05:39.250Z,102758.53
2023-02-06T01:08:41.969Z,102770.13
2023-02-06T01:11:44.647Z,102772.59
2023-02-06T01:14:47.317Z,102773.88
2023-02-06T01:17:49.976Z,102775.25
2023-02-06T01:20:54.038Z,102773.22
2023-02-06T01:23:56.661Z,102780.75
2023-02-06T01:26:59.235Z,102769.47
2023-02-06T01:30:01.841Z,102767.28
2023-02-06T01:33:05.242Z,102758.47
2023-02-06T01:36:10.054Z,102763.31
2023-02-06T01:39:12.690Z,102768.34
2023-02-06T01:42:15.358Z,102766.97
2023-02-06T01:45:35.766Z,102766.34
2023-02-06T01:48:41.394Z,102763.31
2023-02-06T01:51:47.296Z,102755.00
2023-02-06T01:54:53.417Z,102751.56
2023-02-06T01:57:56.172Z,102761.03
2023-02-06T02:01:00.828Z,102765.41
2023-02-06T02:04:07.133Z,102753.44
2023-02-06T02:07:17.075Z,102749.25
2023-02-06T02:10:20.909Z,102751.91
2023-02-06T02:13:24.063Z,102757.22
2023-02-06T02:16:39.390Z,102751.25
2023-02-06T02:20:20.932Z,102753.44
2023-02-06T02:23:36.415Z,102761.09
2023-02-06T02:27:14.922Z,102754.97
2023-02-06T02:30:51.967Z,102760.88
2023-02-06T02:34:47.677Z,102756.97
2023-02-06T02:38:02.335Z,102751.28
2023-02-06T02:41:14.321Z,102767.44
2023-02-06T02:44:27.200Z,102754.06
2023-02-06T02:47:39.363Z,102750.81
2023-02-06T02:50:44.112Z,102716.19
2023-02-06T02:53:47.774Z,102733.81
2023-02-06T02:56:50.528Z,102743.16
2023-02-06T02:59:57.397Z,102747.09
2023-02-06T03:03:00.375Z,102743.53
2023-02-06T03:06:22.026Z,102738.72
2023-02-06T03:09:39.469Z,102747.81
2023-02-06T03:12:46.395Z,102745.19
2023-02-06T03:15:56.338Z,102741.81
2023-02-06T03:19:02.915Z,102754.56
2023-02-06T03:22:07.263Z,102754.78
2023-02-06T03:25:13.554Z,102756.09
2023-02-06T03:28:19.039Z,102755.81
2023-02-06T03:31:27.261Z,102760.72
2023-02-06T03:34:36.925Z,102766.22
2023-02-06T03:37:41.065Z,102772.13
2023-02-06T03:40:48.887Z,102775.09
2023-02-06T03:43:53.543Z,102770.44
2023-02-06T03:46:59.231Z,102767.63
2023-02-06T03:50:02.574Z,102755.50
2023-02-06T03:53:08.288Z,102767.06
2023-02-06T03:56:15.710Z,102767.63
2023-02-06T03:59:18.480Z,102764.19
2023-02-06T04:02:22.828Z,102754.25
2023-02-06T04:05:26.442Z,102743.69
2023-02-06T04:08:30.592Z,102747.38
2023-02-06T04:11:33.260Z,102751.16
2023-02-06T04:14:36.860Z,102757.50
2023-02-06T04:17:53.692Z,102762.25
2023-02-06T04:21:05.882Z,102748.34
2023-02-06T04:24:10.095Z,102754.59
2023-02-06T04:27:14.372Z,102753.22
2023-02-06T04:30:18.272Z,102763.00
2023-02-06T04:33:23.806Z,102746.63
2023-02-06T04:36:27.002Z,102763.75
2023-02-06T04:39:31.696Z,102745.19
2023-02-06T04:42:34.728Z,102760.00
2023-02-06T04:45:37.934Z,102754.81
2023-02-06T04:48:41.712Z,102738.31
2023-02-06T04:51:49.472Z,102731.03
2023-02-06T04:54:53.909Z,102753.00
2023-02-06T04:57:58.236Z,102725.06
2023-02-06T05:01:04.639Z,102786.91
2023-02-06T05:04:08.089Z,102744.59
2023-02-06T05:07:11.029Z,102745.41
2023-02-06T05:10:15.422Z,102759.84
2023-02-06T05:13:19.180Z,102749.06
2023-02-06T05:16:22.430Z,102762.63
2023-02-06T05:19:25.487Z,102763.28
2023-02-06T05:22:28.576Z,102762.03
2023-02-06T05:25:32.806Z,102794.53
2023-02-06T05:28:35.884Z,102787.41
2023-02-06T05:31:39.129Z,102787.53
2023-02-06T05:34:41.985Z,102760.03
2023-02-06T05:37:45.018Z,102786.16
2023-02-06T05:40:51.834Z,102770.13
2023-02-06T05:43:54.940Z,102777.47
2023-02-06T05:46:57.955Z,102798.94
2023-02-06T05:50:00.853Z,102826.22
2023-02-06T05:53:03.890Z,102792.31
2023-02-06T05:56:08.333Z,102795.34
2023-02-06T05:59:11.532Z,102781.06
2023-02-06T06:02:14.864Z,102775.06
2023-02-06T06:05:17.875Z,102766.72
2023-02-06T06:08:21.527Z,102793.94
2023-02-06T06:11:25.749Z,102791.78
2023-02-06T06:14:28.647Z,102781.13
2023-02-06T06:17:32.010Z,102790.41
2023-02-06T06:20:44.138Z,102798.94
2023-02-06T06:23:49.605Z,102797.47
2023-02-06T06:26:54.253Z,102822.94
2023-02-06T06:29:57.210Z,102791.75
2023-02-06T06:33:00.156Z,102784.00
2023-02-06T06:36:06.268Z,102790.59
2023-02-06T06:39:09.224Z,102787.41
2023-02-06T06:42:13.423Z,102832.53
2023-02-06T06:45:16.247Z,102828.75
2023-02-06T06:48:18.986Z,102825.41
2023-02-06T06:51:22.017Z,102831.09
2023-02-06T06:54:24.736Z,102817.00
2023-02-06T06:57:31.004Z,102824.13
2023-02-06T07:00:34.487Z,102828.97
2023-02-06T07:03:37.545Z,102833.75
2023-02-06T07:06:40.417Z,102824.63
2023-02-06T07:09:43.154Z,102829.97
2023-02-06T07:12:48.141Z,102825.72
2023-02-06T07:15:50.836Z,102823.28
2023-02-06T07:18:53.481Z,102826.41
2023-02-06T07:21:58.153Z,102823.16
2023-02-06T07:25:01.128Z,102830.75
2023-02-06T07:28:05.548Z,102826.75
2023-02-06T07:31:08.623Z,102822.75
2023-02-06T07:34:12.570Z,102828.72
2023-02-06T07:37:15.368Z,102817.84
2023-02-06T07:40:18.351Z,102830.25
2023-02-06T07:43:22.384Z,102813.25
2023-02-06T07:46:25.418Z,102818.44
2023-02-06T07:49:28.378Z,102827.31
2023-02-06T07:52:31.389Z,102821.75
2023-02-06T07:55:35.955Z,102814.84
2023-02-06T07:58:41.093Z,102805.94
2023-02-06T08:01:44.099Z,102818.44
2023-02-06T08:04:46.895Z,102809.41
2023-02-06T08:07:50.662Z,102820.50
2023-02-06T08:10:53.363Z,102822.44
2023-02-06T08:13:57.779Z,102816.88
2023-02-06T08:17:00.581Z,102829.50
2023-02-06T08:20:03.463Z,102821.97
2023-02-06T08:23:08.070Z,102831.59
2023-02-06T08:26:18.621Z,102832.66
2023-02-06T08:29:24.445Z,102831.59
2023-02-06T08:32:32.445Z,102832.44
2023-02-06T08:35:35.346Z,102828.66
2023-02-06T08:38:39.468Z,102821.22
2023-02-06T08:41:43.629Z,102821.41
2023-02-06T08:44:48.175Z,102810.94
2023-02-06T08:47:51.297Z,102814.59
2023-02-06T08:51:02.020Z,102828.25
2023-02-06T08:54:06.708Z,102826.97
2023-02-06T08:57:09.882Z,102831.06
2023-02-06T09:00:16.412Z,102822.63
2023-02-06T09:03:21.189Z,102836.31
2023-02-06T09:06:25.539Z,102832.19
2023-02-06T09:09:28.463Z,102834.72
2023-02-06T09:12:31.625Z,102832.19
2023-02-06T09:15:36.562Z,102828.50
2023-02-06T09:18:40.282Z,102824.47
2023-02-06T09:21:43.101Z,102828.00
2023-02-06T09:24:46.027Z,102810.81
2023-02-06T09:27:48.845Z,102827.25
2023-02-06T09:30:53.129Z,102816.66
2023-02-06T09:33:57.466Z,102812.97
2023-02-06T09:37:02.520Z,102824.09
2023-02-06T09:40:06.442Z,102814.66
2023-02-06T09:43:14.932Z,102817.09
2023-02-06T09:46:23.469Z,102813.25
2023-02-06T09:49:33.552Z,102808.47
2023-02-06T09:58:25.189Z,102793.28
2023-02-06T10:02:03.059Z,102788.56
2023-02-06T10:05:15.600Z,102779.69
2023-02-06T10:08:24.212Z,102787.03
2023-02-06T10:11:42.914Z,102777.31
2023-02-06T10:14:50.840Z,102768.47
2023-02-06T10:17:59.770Z,102764.66
2023-02-06T10:21:07.574Z,102762.19
2023-02-06T10:24:20.661Z,102765.34
2023-02-06T10:27:23.691Z,102742.91
2023-02-06T10:30:39.670Z,102757.47
2023-02-06T10:33:51.931Z,102761.13
2023-02-06T10:37:14.947Z,102756.47
2023-02-06T10:40:30.925Z,102744.47
2023-02-06T10:43:41.788Z,102747.09
2023-02-06T10:46:48.314Z,102742.31
2023-02-06T10:50:00.465Z,102744.16
2023-02-06T10:53:06.926Z,102738.38
2023-02-06T10:56:15.569Z,102727.81
2023-02-06T10:59:28.106Z,102726.75
2023-02-06T11:02:39.220Z,102728.88
2023-02-06T11:05:45.104Z,102718.03
2023-02-06T11:08:48.946Z,102714.00
2023-02-06T11:11:56.221Z,102707.28
2023-02-06T11:15:05.151Z,102695.34
2023-02-06T11:18:13.901Z,102709.53
2023-02-06T11:21:50.936Z,102711.34
2023-02-06T11:25:05.829Z,102707.34
2023-02-06T11:28:14.483Z,102704.34
2023-02-06T11:31:20.499Z,102708.09
2023-02-06T11:34:32.224Z,102707.84
2023-02-06T11:37:39.769Z,102685.75
2023-02-06T11:41:00.447Z,102680.19
2023-02-06T11:44:06.668Z,102687.69
2023-02-06T11:47:33.246Z,102692.97
2023-02-06T11:50:37.888Z,102684.13
2023-02-06T11:53:55.163Z,102698.25
2023-02-06T11:57:05.630Z,102683.69
2023-02-06T12:00:20.888Z,102686.81
2023-02-06T12:03:32.447Z,102682.09
2023-02-06T12:06:38.468Z,102672.53
2023-02-06T12:09:41.399Z,102659.31
2023-02-06T12:12:50.130Z,102642.34
2023-02-06T12:15:57.887Z,102641.72
2023-02-06T12:19:01.362Z,102658.19
2023-02-06T12:22:12.608Z,102662.03
2023-02-06T12:25:25.572Z,102658.75
2023-02-06T12:28:37.093Z,102675.06
2023-02-06T12:31:47.897Z,102672.13
2023-02-06T12:34:54.354Z,102668.91
2023-02-06T12:38:07.277Z,102667.78
2023-02-06T12:41:40.224Z,102658.50
2023-02-06T12:44:49.197Z,102664.13
2023-02-06T12:47:57.827Z,102659.84
2023-02-06T12:51:09.017Z,102657.94
2023-02-06T12:54:15.635Z,102651.91
2023-02-06T12:57:21.930Z,102652.00
2023-02-06T13:01:01.021Z,102648.34
2023-02-06T13:04:07.265Z,102652.66
2023-02-06T13:07:13.587Z,102651.06
2023-02-06T13:10:19.916Z,102650.06
2023-02-06T13:13:29.581Z,102654.44
2023-02-06T13:16:44.174Z,102658.66
2023-02-06T13:20:02.561Z,102661.41
2023-02-06T13:23:23.708Z,102656.88
2023-02-06T13:26:59.649Z,102663.88
2023-02-06T13:30:37.608Z,102674.25
2023-02-06T13:33:48.028Z,102672.09
2023-02-06T13:36:52.850Z,102672.50
2023-02-06T13:40:20.607Z,102666.59
2023-02-06T13:43:27.479Z,102663.00
2023-02-06T13:46:57.365Z,102661.69
2023-02-06T13:50:26.998Z,102662.53
2023-02-06T13:53:50.682Z,102659.34
2023-02-06T13:57:18.147Z,102667.16
2023-02-06T14:00:24.040Z,102659.75
2023-02-06T14:03:31.551Z,102661.56
2023-02-06T14:07:10.900Z,102663.69
2023-02-06T14:10:29.904Z,102663.69
2023-02-06T14:13:51.885Z,102674.63
2023-02-06T14:17:06.738Z,102672.81
2023-02-06T14:20:20.919Z,102674.81
2023-02-06T14:23:36.236Z,102680.44
2023-02-06T14:26:47.716Z,102679.88
2023-02-06T14:29:58.119Z,102687.06
2023-02-06T14:33:16.910Z,102676.09
2023-02-06T14:36:56.573Z,102688.88
2023-02-06T14:40:04.693Z,102691.81
2023-02-06T14:43:12.819Z,102692.94
2023-02-06T14:46:18.461Z,102693.03
2023-02-06T14:49:33.771Z,102699.78
2023-02-06T14:52:36.622Z,102700.81
2023-02-06T14:55:42.885Z,102695.16
2023-02-06T14:58:48.835Z,102697.53
2023-02-06T15:01:53.620Z,102700.50
2023-02-06T15:04:58.145Z,102705.06
2023-02-06T15:08:03.500Z,102707.56
2023-02-06T15:11:19.088Z,102717.34
2023-02-06T15:14:24.207Z,102707.53
2023-02-06T15:17:26.985Z,102704.06
2023-02-06T15:20:36.627Z,102709.19
2023-02-06T15:23:52.612Z,102708.09
2023-02-06T15:27:06.082Z,102714.22
2023-02-06T15:30:20.170Z,102718.16
2023-02-06T15:33:25.570Z,102715.91
2023-02-06T15:36:32.017Z,102722.19
2023-02-06T15:39:34.764Z,102724.78
2023-02-06T15:42:39.007Z,102725.31
2023-02-06T15:45:44.113Z,102729.59
2023-02-06T15:48:50.807Z,102733.28
2023-02-06T15:51:55.007Z,102744.75
2023-02-06T15:54:59.028Z,102744.50
2023-02-06T15:58:05.435Z,102749.84
2023-02-06T16:01:15.475Z,102762.22
2023-02-06T16:04:25.800Z,102752.34
2023-02-06T16:07:32.028Z,102763.22
2023-02-06T16:10:37.817Z,102762.69
2023-02-06T16:13:45.911Z,102759.00
2023-02-06T16:17:01.091Z,102764.53
2023-02-06T16:20:06.752Z,102767.53
2023-02-06T16:23:24.036Z,102771.94
2023-02-06T16:26:29.713Z,102780.16
2023-02-06T16:29:34.403Z,102779.50
2023-02-06T16:32:37.251Z,102779.06
2023-02-06T16:35:39.933Z,102781.19
2023-02-06T16:38:48.388Z,102781.06
2023-02-06T16:41:57.079Z,102784.50
2023-02-06T16:45:09.869Z,102790.81
2023-02-06T16:48:14.595Z,102801.91
2023-02-06T16:51:18.920Z,102797.88
2023-02-06T16:54:25.385Z,102793.84
2023-02-06T16:57:30.450Z,102793.50
2023-02-06T17:00:34.971Z,102804.81
2023-02-06T17:03:38.800Z,102800.88
2023-02-06T17:06:41.766Z,102800.16
2023-02-06T17:09:46.095Z,102803.03
2023-02-06T17:12:49.216Z,102796.00
2023-02-06T17:15:53.534Z,102797.22
2023-02-06T17:18:56.286Z,102803.59
2023-02-06T17:21:59.618Z,102812.16
2023-02-06T17:25:02.392Z,102809.63
2023-02-06T17:28:07.526Z,102816.16
2023-02-06T17:31:12.385Z,102824.41
2023-02-06T17:34:15.541Z,102824.00
2023-02-06T17:37:21.658Z,102827.34
2023-02-06T17:40:28.048Z,102817.63
2023-02-06T17:43:31.199Z,102817.78
2023-02-06T17:46:35.274Z,102816.41
2023-02-06T17:49:38.117Z,102819.06
2023-02-06T17:52:41.369Z,102827.00
2023-02-06T17:55:45.176Z,102817.75
2023-02-06T17:58:48.402Z,102822.84
2023-02-06T18:01:53.489Z,102824.41
2023-02-06T18:04:57.326Z,102826.41
2023-02-06T18:08:00.386Z,102824.38
2023-02-06T18:11:09.453Z,102827.38
2023-02-06T18:14:12.531Z,102826.88
2023-02-06T18:17:17.554Z,102835.94
2023-02-06T18:20:20.376Z,102831.81
2023-02-06T18:23:23.520Z,102829.13
2023-02-06T18:26:27.361Z,102831.88
2023-02-06T18:29:43.727Z,102832.97
2023-02-06T18:32:53.138Z,102833.91
2023-02-06T18:35:56.308Z,102833.88
2023-02-06T18:38:59.585Z,102835.53
2023-02-06T18:42:21.011Z,102831.13
2023-02-06T18:45:31.131Z,102834.06
2023-02-06T18:48:36.313Z,102835.34
2023-02-06T18:51:39.451Z,102838.25
2023-02-06T18:54:42.549Z,102841.66
2023-02-06T18:57:46.352Z,102839.31
2023-02-06T19:00:50.622Z,102849.28
2023-02-06T19:03:55.373Z,102845.44
2023-02-06T19:06:58.513Z,102848.69
2023-02-06T19:10:04.553Z,102853.81
2023-02-06T19:13:07.939Z,102850.81
2023-02-06T19:16:12.789Z,102853.66
2023-02-06T19:19:17.454Z,102855.28
2023-02-06T19:22:20.432Z,102855.19
2023-02-06T19:25:23.864Z,102856.25
2023-02-06T19:28:26.980Z,102859.34
2023-02-06T19:31:31.970Z,102848.84
2023-02-06T19:34:37.785Z,102857.03
2023-02-06T19:37:40.942Z,102856.22
2023-02-06T19:40:46.779Z,102864.25
2023-02-06T19:43:50.132Z,102861.66
2023-02-06T19:46:52.966Z,102866.28
2023-02-06T19:49:57.058Z,102856.84
2023-02-06T19:52:59.747Z,102855.09
2023-02-06T19:56:03.366Z,102861.69
2023-02-06T19:59:09.865Z,102866.00
2023-02-06T20:02:15.393Z,102863.06
2023-02-06T20:05:25.972Z,102864.94
2023-02-06T20:08:30.504Z,102859.72
2023-02-06T20:11:33.899Z,102859.84
2023-02-06T20:14:36.633Z,102869.91
2023-02-06T20:17:39.727Z,102867.22
2023-02-06T20:20:49.763Z,102879.84
2023-02-06T20:23:53.529Z,102880.22
2023-02-06T20:26:58.864Z,102885.78
2023-02-06T20:30:01.661Z,102887.97
2023-02-06T20:33:06.321Z,102894.25
2023-02-06T20:36:13.902Z,102894.25
2023-02-06T20:39:17.156Z,102901.53
2023-02-06T20:42:22.471Z,102904.91
2023-02-06T20:45:26.117Z,102901.63
2023-02-06T20:48:29.373Z,102904.19
2023-02-06T20:51:33.512Z,102905.69
2023-02-06T20:54:37.028Z,102901.38
2023-02-06T20:57:40.380Z,102907.03
2023-02-06T21:00:44.337Z,102914.56
2023-02-06T21:03:47.401Z,102914.00
2023-02-06T21:06:51.752Z,102919.88
2023-02-06T21:09:55.976Z,102921.47
2023-02-06T21:12:59.248Z,102915.31
2023-02-06T21:16:02.382Z,102924.69
2023-02-06T21:19:06.848Z,102918.22
2023-02-06T21:22:10.946Z,102926.63
2023-02-06T21:25:13.931Z,102924.53
2023-02-06T21:28:16.694Z,102920.72
2023-02-06T21:31:21.654Z,102917.44
2023-02-06T21:34:25.974Z,102922.75
2023-02-06T21:37:30.004Z,102904.56
2023-02-06T21:40:34.107Z,102916.88
2023-02-06T21:43:37.108Z,102910.41
2023-02-06T21:46:40.366Z,102920.47
2023-02-06T21:49:43.273Z,102928.44
2023-02-06T21:52:47.353Z,102933.09
2023-02-06T21:55:50.285Z,102931.03
2023-02-06T21:58:53.054Z,102931.16
2023-02-06T22:01:56.162Z,102935.75
2023-02-06T22:04:59.715Z,102941.88
2023-02-06T22:08:04.096Z,102947.19
2023-02-06T22:11:14.725Z,102947.13
2023-02-06T22:14:18.367Z,102946.16
2023-02-06T22:17:20.997Z,102942.25
2023-02-06T22:20:23.917Z,102948.16
2023-02-06T22:23:28.085Z,102944.25
2023-02-06T22:26:31.086Z,102942.47
2023-02-06T22:29:34.011Z,102935.38
2023-02-06T22:32:37.757Z,102935.53
2023-02-06T22:35:40.506Z,102933.75
2023-02-06T22:38:45.940Z,102942.31
2023-02-06T22:41:49.689Z,102930.59
2023-02-06T22:44:52.507Z,102933.75
2023-02-06T22:47:55.229Z,102937.22
2023-02-06T22:51:04.890Z,102941.88
2023-02-06T22:54:09.498Z,102949.97
2023-02-06T22:57:12.742Z,102943.25
2023-02-06T23:00:17.089Z,102956.69
2023-02-06T23:03:19.815Z,102954.88
2023-02-06T23:06:22.786Z,102959.53
2023-02-06T23:09:28.524Z,102965.50
2023-02-06T23:12:31.170Z,102964.66
2023-02-06T23:15:33.871Z,102970.56
2023-02-06T23:18:36.733Z,102963.44
2023-02-06T23:21:41.235Z,102966.72
2023-02-06T23:24:45.322Z,102977.28
2023-02-06T23:27:47.981Z,102972.63
2023-02-06T23:30:51.323Z,102976.16
2023-02-06T23:33:54.999Z,102981.75
2023-02-06T23:36:57.723Z,102967.69
2023-02-06T23:40:01.925Z,102976.44
2023-02-06T23:43:05.340Z,102978.06
2023-02-06T23:46:12.080Z,102967.31
2023-02-06T23:49:15.543Z,102968.56
2023-02-06T23:52:18.358Z,102968.28
2023-02-06T23:55:24.831Z,102971.78
2023-02-06T23:58:27.968Z,102984.38
